21:45
Airports
Links
Donate
Help keep this website running!
PayPal
Bitcoin
METAR
EDDM 162120Z VRB01KT CAVOK 18/15 Q1022 NOSIG
Current Weather Conditions at EDDM
VFR 21:20:00 16-08-17
Altimeter:30.18 hg
Temp:18.0°c 64°f
Dew point:15.0°c 59°f
Wind:1 knots, 1.2 mph, 1 m/s,
Variable direction
Visibility:6.21 statute miles
(CAVOK)
No significant weather changes expected within 2 hours.
Past METAR reports
VFR 20:50:00 16-08-17
Altimeter:30.18 hg
Temp:18.0°c 64°f
Dew point:15.0°c 59°f
Wind:5 knots, 5.8 mph, 3 m/s, from 80°
Visibility:6.21 statute miles
(CAVOK)
No significant weather changes expected within 2 hours.
EDDM 162050Z 08005KT CAVOK 18/15 Q1022 NOSIG
VFR 20:20:00 16-08-17
Altimeter:30.18 hg
Temp:18.0°c 64°f
Dew point:16.0°c 61°f
Wind:2 knots, 2.3 mph, 1 m/s,
Variable direction
Visibility:6.21 statute miles
(CAVOK)
No significant weather changes expected within 2 hours.
EDDM 162020Z VRB02KT CAVOK 18/16 Q1022 NOSIG
VFR 19:50:00 16-08-17
Altimeter:30.18 hg
Temp:19.0°c 66°f
Dew point:16.0°c 61°f
Wind:3 knots, 3.5 mph, 2 m/s, from 70°
Visibility:6.21 statute miles
(CAVOK)
No significant weather changes expected within 2 hours.
EDDM 161950Z 07003KT CAVOK 19/16 Q1022 NOSIG
VFR 19:20:00 16-08-17
Altimeter:30.18 hg
Temp:20.0°c 68°f
Dew point:16.0°c 61°f
Wind:2 knots, 2.3 mph, 1 m/s, from 70°
Visibility:6.21 statute miles
(CAVOK)
No significant weather changes expected within 2 hours.
EDDM 161920Z 07002KT CAVOK 20/16 Q1022 NOSIG
VFR 18:50:00 16-08-17
Altimeter:30.18 hg
Temp:21.0°c 70°f
Dew point:16.0°c 61°f
Wind:3 knots, 3.5 mph, 2 m/s, from 70°
Visibility:6.21 statute miles
(CAVOK)
No significant weather changes expected within 2 hours.
EDDM 161850Z 07003KT CAVOK 21/16 Q1022 NOSIG
VFR 18:20:00 16-08-17
Altimeter:30.18 hg
Temp:22.0°c 72°f
Dew point:16.0°c 61°f
Wind:3 knots, 3.5 mph, 2 m/s, from 60°
Visibility:6.21 statute miles
(CAVOK)
No significant weather changes expected within 2 hours.
EDDM 161820Z 06003KT CAVOK 22/16 Q1022 NOSIG
TAF
TAF EDDM 161700Z 1618/1724 08003KT CAVOK PROB30 TEMPO 1703/1706 1200 BCFG BECMG 1707/1709 27005KT
Forecast at EDDM
18:00 16-08-17 to 07:00 17-08-17
NSW
Wind:3 Knots from 80°
Visibility:6.21 statute miles
NSC
TEMPO 03:00 17-08-17 to 06:00 17-08-17
30% BCFG
Visibility:0.75 statute miles
BECMG 07:00 17-08-17 to 00:00 18-08-17
NSW
Wind:5 Knots from 270°
Visibility:6.21 statute miles
NSC